HKE746 VHHH-WMKP
Flight info
| Callsign | HKE746 |
|---|---|
| Flight time | N/A |
| Altitude | 36000 |
| Route | PECAN V12 EPDOS L642 EPKAL/K0845F360 L642 CN M765 BITOD/N0450F360 M765 VKB W546 BETNU BETNU1F |
| Aircraft | A20N/M-SDE2E3FGHIRWXY/LB1 |
Departure
| Time | 2026-04-30 09:56 |
|---|---|
| Airport | Hong Kong International Airport (VHHH) |
Arrival
| Time | N/A |
|---|---|
| Airport | Penang International Airport (WMKP) |
| Time | Latitude | Longitude | Altitude | Speed | Heading |
|---|---|---|---|---|---|
| 2026-04-30 09:33 | 22.30673 | 113.91801 | 38 ft | 0 kts | 71° |
| 2026-04-30 09:46 | 22.30672 | 113.91796 | 38 ft | 3 kts | 71° |
| 2026-04-30 09:46 | 22.30663 | 113.91769 | 36 ft | 4 kts | 71° |
| 2026-04-30 09:47 | 22.30654 | 113.91742 | 36 ft | 3 kts | 71° |
| 2026-04-30 09:47 | 22.30651 | 113.91716 | 34 ft | 4 kts | 116° |
| 2026-04-30 09:47 | 22.30668 | 113.91698 | 37 ft | 4 kts | 159° |
| 2026-04-30 09:47 | 22.30676 | 113.91695 | 38 ft | 0 kts | 160° |
| 2026-04-30 09:50 | 22.30624 | 113.91715 | 37 ft | 9 kts | 160° |
| 2026-04-30 09:50 | 22.30565 | 113.91737 | 38 ft | 9 kts | 160° |
| 2026-04-30 09:50 | 22.30508 | 113.91759 | 38 ft | 10 kts | 160° |
| 2026-04-30 09:51 | 22.30442 | 113.91753 | 38 ft | 10 kts | 219° |
| 2026-04-30 09:51 | 22.30418 | 113.91697 | 38 ft | 7 kts | 252° |
| 2026-04-30 09:51 | 22.30398 | 113.91634 | 37 ft | 10 kts | 251° |
| 2026-04-30 09:51 | 22.30372 | 113.91551 | 38 ft | 13 kts | 248° |
| 2026-04-30 09:52 | 22.30332 | 113.91434 | 36 ft | 22 kts | 254° |
| 2026-04-30 09:52 | 22.30274 | 113.91252 | 38 ft | 26 kts | 251° |
| 2026-04-30 09:52 | 22.30217 | 113.91071 | 38 ft | 25 kts | 250° |
| 2026-04-30 09:52 | 22.30160 | 113.90893 | 38 ft | 25 kts | 251° |
| 2026-04-30 09:53 | 22.30104 | 113.90721 | 38 ft | 24 kts | 251° |
| 2026-04-30 09:53 | 22.30048 | 113.90551 | 38 ft | 24 kts | 251° |
| 2026-04-30 09:53 | 22.29996 | 113.90387 | 38 ft | 23 kts | 255° |
| 2026-04-30 09:53 | 22.29946 | 113.90234 | 36 ft | 21 kts | 252° |
| 2026-04-30 09:54 | 22.29896 | 113.90083 | 38 ft | 21 kts | 253° |
| 2026-04-30 09:54 | 22.29852 | 113.89938 | 37 ft | 20 kts | 251° |
| 2026-04-30 09:54 | 22.29785 | 113.89874 | 38 ft | 10 kts | 169° |
| 2026-04-30 09:54 | 22.29725 | 113.89896 | 38 ft | 9 kts | 158° |
| 2026-04-30 09:55 | 22.29676 | 113.89921 | 38 ft | 7 kts | 133° |
| 2026-04-30 09:55 | 22.29672 | 113.89956 | 38 ft | 4 kts | 76° |
| 2026-04-30 09:55 | 22.29680 | 113.89981 | 37 ft | 3 kts | 69° |
| 2026-04-30 09:55 | 22.29750 | 113.90194 | 37 ft | 63 kts | 71° |
| 2026-04-30 09:56 | 22.29961 | 113.90846 | 39 ft | 120 kts | 71° |
| 2026-04-30 09:56 | 22.30297 | 113.91865 | 46 ft | 165 kts | 66° |
| 2026-04-30 09:56 | 22.30634 | 113.93007 | 573 ft | 155 kts | 69° |
| 2026-04-30 09:56 | 22.30983 | 113.94156 | 874 ft | 173 kts | 67° |
| 2026-04-30 09:57 | 22.31414 | 113.95451 | 1121 ft | 190 kts | 68° |
| 2026-04-30 09:57 | 22.31864 | 113.96812 | 1632 ft | 195 kts | 68° |
| 2026-04-30 09:57 | 22.32340 | 113.98262 | 2048 ft | 214 kts | 69° |
| 2026-04-30 09:57 | 22.32846 | 113.99816 | 2667 ft | 224 kts | 69° |
| 2026-04-30 09:58 | 22.33364 | 114.01421 | 3466 ft | 226 kts | 69° |
| 2026-04-30 09:58 | 22.33758 | 114.03085 | 4244 ft | 234 kts | 81° |
| 2026-04-30 09:58 | 22.33676 | 114.04879 | 4942 ft | 246 kts | 103° |
| 2026-04-30 09:58 | 22.32945 | 114.06565 | 5679 ft | 251 kts | 128° |
| 2026-04-30 09:59 | 22.30022 | 114.08609 | 6979 ft | 259 kts | 171° |
| 2026-04-30 09:59 | 22.26366 | 114.08781 | 8121 ft | 274 kts | 185° |
| 2026-04-30 10:00 | 22.22456 | 114.08696 | 9429 ft | 286 kts | 184° |
| 2026-04-30 10:00 | 22.20453 | 114.08698 | 10130 ft | 289 kts | 184° |
| 2026-04-30 10:01 | 22.16251 | 114.08709 | 10692 ft | 323 kts | 184° |
| 2026-04-30 10:01 | 22.13942 | 114.08714 | 10991 ft | 339 kts | 184° |
| 2026-04-30 10:01 | 22.12373 | 114.08719 | 11271 ft | 345 kts | 184° |
| 2026-04-30 10:02 | 22.07487 | 114.08737 | 12267 ft | 356 kts | 184° |
| 2026-04-30 10:02 | 22.04159 | 114.08747 | 13005 ft | 361 kts | 184° |
| 2026-04-30 10:02 | 22.01630 | 114.08754 | 13579 ft | 364 kts | 184° |
| 2026-04-30 10:02 | 21.99944 | 114.08759 | 13942 ft | 367 kts | 184° |
| 2026-04-30 10:03 | 21.97373 | 114.08765 | 14455 ft | 370 kts | 184° |
| 2026-04-30 10:03 | 21.94794 | 114.08771 | 14986 ft | 373 kts | 184° |
| 2026-04-30 10:03 | 21.92193 | 114.08778 | 15531 ft | 375 kts | 184° |
| 2026-04-30 10:03 | 21.89567 | 114.08784 | 16077 ft | 378 kts | 184° |
| 2026-04-30 10:04 | 21.86927 | 114.08790 | 16629 ft | 380 kts | 184° |
| 2026-04-30 10:04 | 21.84276 | 114.08797 | 17209 ft | 382 kts | 184° |
| 2026-04-30 10:04 | 21.81616 | 114.08803 | 17737 ft | 384 kts | 184° |
| 2026-04-30 10:04 | 21.78931 | 114.08809 | 18236 ft | 387 kts | 184° |
| 2026-04-30 10:05 | 21.76226 | 114.08815 | 18665 ft | 390 kts | 184° |
| 2026-04-30 10:05 | 21.73496 | 114.08821 | 19070 ft | 393 kts | 184° |
| 2026-04-30 10:05 | 21.70754 | 114.08828 | 19480 ft | 396 kts | 184° |
| 2026-04-30 10:05 | 21.67997 | 114.08834 | 19886 ft | 398 kts | 184° |
| 2026-04-30 10:06 | 21.65223 | 114.08776 | 20282 ft | 399 kts | 189° |
| 2026-04-30 10:06 | 21.62494 | 114.08312 | 20683 ft | 397 kts | 196° |
| 2026-04-30 10:06 | 21.59792 | 114.07639 | 21100 ft | 399 kts | 197° |
| 2026-04-30 10:06 | 21.57084 | 114.06930 | 21511 ft | 401 kts | 197° |
| 2026-04-30 10:07 | 21.54367 | 114.06216 | 21922 ft | 404 kts | 197° |
| 2026-04-30 10:07 | 21.51620 | 114.05499 | 22310 ft | 407 kts | 197° |
| 2026-04-30 10:07 | 21.48861 | 114.04781 | 22711 ft | 410 kts | 197° |
| 2026-04-30 10:07 | 21.46072 | 114.04059 | 23100 ft | 413 kts | 197° |
| 2026-04-30 10:08 | 21.43235 | 114.03498 | 23500 ft | 419 kts | 191° |
| 2026-04-30 10:08 | 21.40324 | 114.03161 | 23851 ft | 422 kts | 188° |
| 2026-04-30 10:08 | 21.37374 | 114.02929 | 24199 ft | 425 kts | 187° |
| 2026-04-30 10:08 | 21.34412 | 114.02749 | 24559 ft | 428 kts | 187° |
| 2026-04-30 10:09 | 21.31434 | 114.02584 | 24921 ft | 430 kts | 187° |
| 2026-04-30 10:09 | 21.28448 | 114.02416 | 25258 ft | 432 kts | 186° |
| 2026-04-30 10:09 | 21.25442 | 114.02238 | 25673 ft | 432 kts | 187° |
| 2026-04-30 10:09 | 21.22442 | 114.02051 | 26038 ft | 434 kts | 187° |
| 2026-04-30 10:10 | 21.19407 | 114.01854 | 26385 ft | 436 kts | 187° |
| 2026-04-30 10:10 | 21.16380 | 114.01653 | 26734 ft | 438 kts | 187° |
| 2026-04-30 10:10 | 21.13334 | 114.01448 | 27073 ft | 439 kts | 187° |
| 2026-04-30 10:10 | 21.10277 | 114.01243 | 27405 ft | 441 kts | 187° |
| 2026-04-30 10:11 | 21.07243 | 114.01039 | 27727 ft | 443 kts | 187° |
| 2026-04-30 10:11 | 21.04155 | 114.00832 | 28047 ft | 445 kts | 187° |
| 2026-04-30 10:11 | 21.01063 | 114.00625 | 28359 ft | 447 kts | 187° |
| 2026-04-30 10:11 | 20.97954 | 114.00418 | 28644 ft | 449 kts | 187° |
| 2026-04-30 10:12 | 20.94822 | 114.00162 | 28885 ft | 451 kts | 191° |
| 2026-04-30 10:12 | 20.91725 | 113.99607 | 29177 ft | 451 kts | 194° |
| 2026-04-30 10:12 | 20.88642 | 113.98958 | 29472 ft | 453 kts | 195° |
| 2026-04-30 10:12 | 20.85547 | 113.98260 | 29806 ft | 453 kts | 195° |
| 2026-04-30 10:13 | 20.82483 | 113.97545 | 30226 ft | 452 kts | 195° |
| 2026-04-30 10:13 | 20.79453 | 113.96830 | 30575 ft | 450 kts | 195° |
| 2026-04-30 10:13 | 20.76401 | 113.96109 | 30927 ft | 449 kts | 195° |
| 2026-04-30 10:13 | 20.73352 | 113.95391 | 31251 ft | 449 kts | 195° |
| 2026-04-30 10:14 | 20.70304 | 113.94676 | 31590 ft | 448 kts | 195° |
| 2026-04-30 10:14 | 20.67272 | 113.93968 | 31959 ft | 445 kts | 195° |
| 2026-04-30 10:14 | 20.61252 | 113.92569 | 32742 ft | 441 kts | 195° |
| 2026-04-30 10:15 | 20.58265 | 113.91876 | 33065 ft | 440 kts | 195° |
| 2026-04-30 10:15 | 20.55275 | 113.91182 | 33403 ft | 438 kts | 195° |
| 2026-04-30 10:15 | 20.52302 | 113.90492 | 33745 ft | 437 kts | 195° |
| 2026-04-30 10:15 | 20.49338 | 113.89805 | 34054 ft | 436 kts | 195° |
| 2026-04-30 10:16 | 20.46368 | 113.89116 | 34317 ft | 435 kts | 195° |
| 2026-04-30 10:16 | 20.43420 | 113.88432 | 34538 ft | 435 kts | 195° |
| 2026-04-30 10:16 | 20.40459 | 113.87746 | 34773 ft | 435 kts | 195° |
| 2026-04-30 10:17 | 20.34550 | 113.86377 | 35241 ft | 434 kts | 196° |
| 2026-04-30 10:17 | 20.28652 | 113.85012 | 35675 ft | 433 kts | 196° |
| 2026-04-30 10:17 | 20.25715 | 113.84333 | 35886 ft | 433 kts | 196° |
| 2026-04-30 10:18 | 20.22767 | 113.83651 | 35989 ft | 434 kts | 196° |
| 2026-04-30 10:18 | 20.19823 | 113.82971 | 36001 ft | 433 kts | 196° |
| 2026-04-30 10:19 | 20.11023 | 113.80939 | 36001 ft | 433 kts | 196° |
| 2026-04-30 10:19 | 20.05250 | 113.79607 | 35995 ft | 433 kts | 196° |
| 2026-04-30 10:20 | 19.99342 | 113.78245 | 35996 ft | 433 kts | 196° |
| 2026-04-30 10:20 | 19.90538 | 113.76218 | 35995 ft | 433 kts | 196° |
| 2026-04-30 10:21 | 19.84606 | 113.74854 | 36002 ft | 433 kts | 197° |
| 2026-04-30 10:21 | 19.78741 | 113.73502 | 35984 ft | 434 kts | 197° |
| 2026-04-30 10:22 | 19.72825 | 113.72144 | 35992 ft | 436 kts | 197° |
| 2026-04-30 10:22 | 19.66877 | 113.70781 | 35994 ft | 436 kts | 197° |
| 2026-04-30 10:23 | 19.61037 | 113.69443 | 35988 ft | 436 kts | 197° |
| 2026-04-30 10:23 | 19.55102 | 113.68083 | 35992 ft | 436 kts | 197° |
| 2026-04-30 10:24 | 19.49161 | 113.66722 | 35978 ft | 436 kts | 196° |
| 2026-04-30 10:24 | 19.43248 | 113.65368 | 35986 ft | 436 kts | 196° |
| 2026-04-30 10:25 | 19.37315 | 113.64012 | 35987 ft | 437 kts | 196° |
| 2026-04-30 10:25 | 19.31375 | 113.62655 | 35986 ft | 437 kts | 196° |
| 2026-04-30 10:26 | 19.25434 | 113.61298 | 35987 ft | 437 kts | 196° |
| 2026-04-30 10:26 | 19.19501 | 113.59945 | 35971 ft | 437 kts | 195° |
| 2026-04-30 10:27 | 19.13559 | 113.58589 | 35972 ft | 438 kts | 196° |
| 2026-04-30 10:27 | 19.07606 | 113.57233 | 35983 ft | 438 kts | 196° |
| 2026-04-30 10:28 | 19.01636 | 113.55875 | 35982 ft | 438 kts | 196° |
| 2026-04-30 10:28 | 18.95620 | 113.54760 | 35981 ft | 440 kts | 192° |
| 2026-04-30 10:29 | 18.89541 | 113.53925 | 35978 ft | 441 kts | 191° |
| 2026-04-30 10:29 | 18.83460 | 113.53113 | 35977 ft | 441 kts | 191° |
| 2026-04-30 10:30 | 18.77398 | 113.52270 | 35980 ft | 441 kts | 191° |
| 2026-04-30 10:30 | 18.71321 | 113.51405 | 35979 ft | 441 kts | 191° |
| 2026-04-30 10:31 | 18.65329 | 113.50547 | 35980 ft | 441 kts | 191° |
| 2026-04-30 10:31 | 18.59200 | 113.49607 | 35969 ft | 438 kts | 196° |
| 2026-04-30 10:32 | 18.53569 | 113.47352 | 35977 ft | 430 kts | 214° |
| 2026-04-30 10:32 | 18.48619 | 113.43851 | 35977 ft | 428 kts | 218° |
| 2026-04-30 10:33 | 18.43825 | 113.40123 | 35975 ft | 429 kts | 219° |
| 2026-04-30 10:33 | 18.39108 | 113.36424 | 35974 ft | 429 kts | 219° |
| 2026-04-30 10:34 | 18.34306 | 113.32698 | 35973 ft | 429 kts | 219° |
| 2026-04-30 10:34 | 18.29494 | 113.28990 | 35969 ft | 429 kts | 218° |
| 2026-04-30 10:35 | 18.24677 | 113.25287 | 35969 ft | 429 kts | 218° |
| 2026-04-30 10:35 | 18.19859 | 113.21585 | 35974 ft | 429 kts | 218° |
| 2026-04-30 10:36 | 18.15070 | 113.17908 | 35967 ft | 429 kts | 218° |
| 2026-04-30 10:36 | 18.10253 | 113.14210 | 35970 ft | 429 kts | 218° |
| 2026-04-30 10:37 | 18.05434 | 113.10514 | 35968 ft | 429 kts | 218° |
| 2026-04-30 10:37 | 18.00635 | 113.06835 | 35955 ft | 430 kts | 218° |
| 2026-04-30 10:38 | 17.95884 | 113.03195 | 35969 ft | 431 kts | 218° |
| 2026-04-30 10:38 | 17.91027 | 112.99477 | 35963 ft | 432 kts | 218° |
| 2026-04-30 10:39 | 17.86170 | 112.95762 | 35966 ft | 432 kts | 218° |
| 2026-04-30 10:39 | 17.81351 | 112.92004 | 35961 ft | 431 kts | 219° |
| 2026-04-30 10:40 | 17.76558 | 112.88222 | 35963 ft | 431 kts | 219° |
| 2026-04-30 10:40 | 17.71760 | 112.84440 | 35966 ft | 431 kts | 219° |
| 2026-04-30 10:41 | 17.66949 | 112.80657 | 35961 ft | 433 kts | 218° |
| 2026-04-30 10:41 | 17.62117 | 112.76864 | 35960 ft | 434 kts | 219° |
| 2026-04-30 10:42 | 17.57310 | 112.73093 | 35960 ft | 435 kts | 219° |
| 2026-04-30 10:42 | 17.52430 | 112.69270 | 35961 ft | 435 kts | 219° |
| 2026-04-30 10:43 | 17.47619 | 112.65502 | 35960 ft | 435 kts | 219° |
| 2026-04-30 10:43 | 17.42743 | 112.61686 | 35960 ft | 435 kts | 219° |
| 2026-04-30 10:44 | 17.37897 | 112.57895 | 35963 ft | 435 kts | 219° |
| 2026-04-30 10:44 | 17.33053 | 112.54108 | 35960 ft | 435 kts | 219° |
| 2026-04-30 10:45 | 17.28240 | 112.50349 | 35961 ft | 435 kts | 219° |
| 2026-04-30 10:45 | 17.23391 | 112.46564 | 35961 ft | 435 kts | 219° |
| 2026-04-30 10:46 | 17.18537 | 112.42777 | 35960 ft | 435 kts | 219° |
| 2026-04-30 10:46 | 17.13674 | 112.38986 | 35959 ft | 436 kts | 219° |
| 2026-04-30 10:47 | 17.08811 | 112.35197 | 35957 ft | 436 kts | 218° |
| 2026-04-30 10:47 | 17.03942 | 112.31406 | 35960 ft | 436 kts | 218° |
| 2026-04-30 10:48 | 16.99071 | 112.27627 | 35960 ft | 436 kts | 218° |
| 2026-04-30 10:48 | 16.94173 | 112.23897 | 35960 ft | 436 kts | 218° |
| 2026-04-30 10:49 | 16.90105 | 112.20820 | 35958 ft | 436 kts | 218° |
| 2026-04-30 10:49 | 16.85221 | 112.17126 | 35959 ft | 436 kts | 218° |
| 2026-04-30 10:50 | 16.80392 | 112.13470 | 35960 ft | 437 kts | 218° |
| 2026-04-30 10:50 | 16.75466 | 112.09741 | 35958 ft | 438 kts | 218° |
| 2026-04-30 10:51 | 16.70537 | 112.06012 | 35962 ft | 438 kts | 218° |
| 2026-04-30 10:51 | 16.65588 | 112.02269 | 35956 ft | 438 kts | 218° |
| 2026-04-30 10:52 | 16.60690 | 111.98569 | 35952 ft | 438 kts | 218° |
| 2026-04-30 10:52 | 16.55749 | 111.94838 | 35956 ft | 438 kts | 218° |
| 2026-04-30 10:53 | 16.50873 | 111.91158 | 35955 ft | 439 kts | 217° |
| 2026-04-30 10:53 | 16.45918 | 111.87421 | 35955 ft | 440 kts | 217° |
| 2026-04-30 10:54 | 16.40956 | 111.83682 | 35955 ft | 440 kts | 217° |
| 2026-04-30 10:54 | 16.36002 | 111.79951 | 35962 ft | 440 kts | 218° |
| 2026-04-30 10:55 | 16.31035 | 111.76212 | 35955 ft | 441 kts | 218° |
| 2026-04-30 10:55 | 16.26101 | 111.72501 | 35952 ft | 441 kts | 218° |
| 2026-04-30 10:56 | 16.21134 | 111.68767 | 35951 ft | 441 kts | 218° |
| 2026-04-30 10:56 | 16.16239 | 111.65090 | 35950 ft | 442 kts | 218° |
| 2026-04-30 10:57 | 16.11248 | 111.61343 | 35949 ft | 442 kts | 218° |
| 2026-04-30 10:57 | 16.06259 | 111.57599 | 35950 ft | 442 kts | 218° |
| 2026-04-30 10:58 | 16.01266 | 111.53855 | 35949 ft | 442 kts | 218° |
| 2026-04-30 10:58 | 15.96272 | 111.50113 | 35952 ft | 442 kts | 218° |
| 2026-04-30 10:59 | 15.91278 | 111.46373 | 35946 ft | 443 kts | 218° |
| 2026-04-30 10:59 | 15.86277 | 111.42631 | 35949 ft | 444 kts | 218° |
| 2026-04-30 11:00 | 15.81259 | 111.38877 | 35955 ft | 444 kts | 218° |
| 2026-04-30 11:00 | 15.76253 | 111.35136 | 35949 ft | 444 kts | 218° |
| 2026-04-30 11:01 | 15.71238 | 111.31390 | 35947 ft | 444 kts | 218° |
| 2026-04-30 11:01 | 15.66222 | 111.27645 | 35947 ft | 444 kts | 218° |
| 2026-04-30 11:02 | 15.61205 | 111.23902 | 35940 ft | 444 kts | 218° |
| 2026-04-30 11:02 | 15.56184 | 111.20158 | 35947 ft | 446 kts | 218° |
| 2026-04-30 11:03 | 15.51143 | 111.16401 | 35946 ft | 446 kts | 218° |
| 2026-04-30 11:04 | 15.43577 | 111.10768 | 35946 ft | 445 kts | 218° |
| 2026-04-30 11:04 | 15.38563 | 111.07038 | 35947 ft | 444 kts | 218° |
| 2026-04-30 11:05 | 15.33581 | 111.03311 | 35949 ft | 444 kts | 218° |
| 2026-04-30 11:05 | 15.28603 | 110.99526 | 35947 ft | 445 kts | 218° |
| 2026-04-30 11:06 | 15.23620 | 110.95729 | 35943 ft | 446 kts | 218° |
| 2026-04-30 11:06 | 15.18618 | 110.91925 | 35944 ft | 446 kts | 218° |
| 2026-04-30 11:07 | 15.13617 | 110.88129 | 35948 ft | 446 kts | 218° |
| 2026-04-30 11:07 | 15.08616 | 110.84337 | 35947 ft | 446 kts | 218° |
| 2026-04-30 11:08 | 15.03655 | 110.80577 | 35944 ft | 446 kts | 218° |
| 2026-04-30 11:08 | 14.98656 | 110.76791 | 35943 ft | 444 kts | 218° |
| 2026-04-30 11:09 | 14.93631 | 110.72986 | 35945 ft | 446 kts | 218° |
| 2026-04-30 11:09 | 14.88624 | 110.69197 | 35947 ft | 446 kts | 218° |
| 2026-04-30 11:10 | 14.83663 | 110.65446 | 35947 ft | 446 kts | 218° |
| 2026-04-30 11:10 | 14.78621 | 110.61635 | 35946 ft | 446 kts | 218° |
| 2026-04-30 11:11 | 14.73649 | 110.57880 | 35944 ft | 446 kts | 218° |
| 2026-04-30 11:11 | 14.68637 | 110.54097 | 35938 ft | 446 kts | 218° |
| 2026-04-30 11:12 | 14.63620 | 110.50312 | 35946 ft | 448 kts | 218° |
| 2026-04-30 11:12 | 14.58586 | 110.46516 | 35951 ft | 448 kts | 218° |
| 2026-04-30 11:13 | 14.53574 | 110.42740 | 35943 ft | 444 kts | 218° |
| 2026-04-30 11:13 | 14.48597 | 110.38993 | 35945 ft | 443 kts | 218° |
| 2026-04-30 11:14 | 14.43613 | 110.35240 | 35942 ft | 443 kts | 218° |
| 2026-04-30 11:14 | 14.38626 | 110.31488 | 35943 ft | 443 kts | 218° |
| 2026-04-30 11:15 | 14.33645 | 110.27743 | 35943 ft | 443 kts | 218° |
| 2026-04-30 11:15 | 14.28663 | 110.24000 | 35942 ft | 443 kts | 218° |
| 2026-04-30 11:16 | 14.23683 | 110.20260 | 35943 ft | 443 kts | 218° |
| 2026-04-30 11:16 | 14.18698 | 110.16519 | 35943 ft | 443 kts | 218° |
| 2026-04-30 11:17 | 14.13712 | 110.12778 | 35942 ft | 443 kts | 218° |
| 2026-04-30 11:17 | 14.08744 | 110.09053 | 35941 ft | 441 kts | 218° |
| 2026-04-30 11:18 | 14.03782 | 110.05335 | 35943 ft | 441 kts | 217° |
| 2026-04-30 11:18 | 13.96390 | 109.99826 | 35947 ft | 442 kts | 216° |
| 2026-04-30 11:19 | 13.91232 | 109.96387 | 35944 ft | 442 kts | 213° |
| 2026-04-30 11:19 | 13.85982 | 109.93068 | 35945 ft | 443 kts | 212° |
| 2026-04-30 11:20 | 13.80878 | 109.89833 | 35945 ft | 442 kts | 213° |
| 2026-04-30 11:20 | 13.75654 | 109.86490 | 35946 ft | 443 kts | 213° |
| 2026-04-30 11:21 | 13.70429 | 109.83132 | 35944 ft | 443 kts | 212° |
| 2026-04-30 11:21 | 13.65202 | 109.79770 | 35950 ft | 445 kts | 213° |
| 2026-04-30 11:22 | 13.59966 | 109.76407 | 35945 ft | 440 kts | 213° |
| 2026-04-30 11:22 | 13.54794 | 109.73090 | 35943 ft | 439 kts | 213° |
| 2026-04-30 11:23 | 13.49601 | 109.69761 | 35945 ft | 440 kts | 213° |
| 2026-04-30 11:24 | 13.41831 | 109.64781 | 35950 ft | 440 kts | 213° |
| 2026-04-30 11:24 | 13.36631 | 109.61449 | 35942 ft | 440 kts | 213° |
| 2026-04-30 11:25 | 13.28941 | 109.56528 | 35940 ft | 441 kts | 213° |
| 2026-04-30 11:26 | 13.18530 | 109.49870 | 35949 ft | 442 kts | 213° |
| 2026-04-30 11:26 | 13.13312 | 109.46536 | 35946 ft | 440 kts | 212° |
| 2026-04-30 11:27 | 13.08113 | 109.43216 | 35942 ft | 442 kts | 213° |
| 2026-04-30 11:27 | 13.02959 | 109.39925 | 35948 ft | 442 kts | 212° |
| 2026-04-30 11:28 | 12.95121 | 109.34925 | 35949 ft | 443 kts | 213° |
| 2026-04-30 11:29 | 12.89896 | 109.31594 | 35945 ft | 442 kts | 212° |
| 2026-04-30 11:29 | 12.82047 | 109.26593 | 35943 ft | 443 kts | 212° |
| 2026-04-30 11:30 | 12.75087 | 109.22162 | 35942 ft | 443 kts | 212° |
| 2026-04-30 11:31 | 12.69841 | 109.18824 | 35943 ft | 444 kts | 213° |
| 2026-04-30 11:31 | 12.64598 | 109.15490 | 35945 ft | 444 kts | 212° |
| 2026-04-30 11:32 | 12.59347 | 109.12153 | 35941 ft | 444 kts | 213° |
| 2026-04-30 11:32 | 12.54088 | 109.08815 | 35942 ft | 444 kts | 212° |
| 2026-04-30 11:33 | 12.46202 | 109.03812 | 35942 ft | 445 kts | 212° |
| 2026-04-30 11:33 | 12.40937 | 109.00474 | 35940 ft | 446 kts | 213° |
| 2026-04-30 11:34 | 12.35667 | 108.97134 | 35947 ft | 446 kts | 213° |
| 2026-04-30 11:34 | 12.30388 | 108.93790 | 35955 ft | 446 kts | 213° |
| 2026-04-30 11:35 | 12.25108 | 108.90447 | 35956 ft | 446 kts | 213° |
| 2026-04-30 11:35 | 12.19828 | 108.87107 | 35959 ft | 446 kts | 213° |
| 2026-04-30 11:36 | 12.14553 | 108.83770 | 35968 ft | 446 kts | 213° |
| 2026-04-30 11:36 | 12.09279 | 108.80437 | 35959 ft | 446 kts | 213° |
| 2026-04-30 11:37 | 12.04079 | 108.77152 | 35956 ft | 447 kts | 213° |
| 2026-04-30 11:37 | 11.98783 | 108.73805 | 35960 ft | 448 kts | 213° |
| 2026-04-30 11:38 | 11.93475 | 108.70454 | 35951 ft | 449 kts | 213° |
| 2026-04-30 11:38 | 11.88201 | 108.67126 | 35951 ft | 448 kts | 213° |
| 2026-04-30 11:39 | 11.82901 | 108.63784 | 35937 ft | 448 kts | 213° |
| 2026-04-30 11:39 | 11.77675 | 108.60490 | 35937 ft | 448 kts | 213° |
| 2026-04-30 11:40 | 11.72369 | 108.57146 | 35943 ft | 449 kts | 213° |
| 2026-04-30 11:40 | 11.67062 | 108.53804 | 35919 ft | 448 kts | 213° |
| 2026-04-30 11:41 | 11.61747 | 108.50459 | 35918 ft | 449 kts | 213° |
| 2026-04-30 11:41 | 11.56438 | 108.47119 | 35899 ft | 448 kts | 213° |
| 2026-04-30 11:42 | 11.51124 | 108.43777 | 35901 ft | 449 kts | 213° |
| 2026-04-30 11:42 | 11.45811 | 108.40438 | 35903 ft | 449 kts | 213° |
| 2026-04-30 11:43 | 11.40485 | 108.37091 | 35887 ft | 449 kts | 213° |
| 2026-04-30 11:43 | 11.35169 | 108.33753 | 35891 ft | 448 kts | 213° |
| 2026-04-30 11:44 | 11.29864 | 108.30423 | 35872 ft | 449 kts | 213° |
| 2026-04-30 11:44 | 11.24549 | 108.27088 | 35874 ft | 449 kts | 213° |
| 2026-04-30 11:45 | 11.19229 | 108.23752 | 35874 ft | 449 kts | 213° |
| 2026-04-30 11:45 | 11.13910 | 108.20417 | 35867 ft | 449 kts | 213° |
| 2026-04-30 11:46 | 11.08603 | 108.17092 | 35868 ft | 449 kts | 213° |
| 2026-04-30 11:46 | 11.03315 | 108.13780 | 35871 ft | 449 kts | 213° |
| 2026-04-30 11:47 | 10.98005 | 108.10455 | 35878 ft | 449 kts | 213° |
| 2026-04-30 11:47 | 10.92681 | 108.07117 | 35870 ft | 449 kts | 213° |
| 2026-04-30 11:48 | 10.87451 | 108.03692 | 35870 ft | 448 kts | 214° |
| 2026-04-30 11:48 | 10.82272 | 108.00227 | 35866 ft | 448 kts | 214° |
| 2026-04-30 11:49 | 10.77061 | 107.96746 | 35868 ft | 448 kts | 214° |
| 2026-04-30 11:49 | 10.71836 | 107.93271 | 35864 ft | 448 kts | 214° |
| 2026-04-30 11:50 | 10.66638 | 107.89822 | 35863 ft | 448 kts | 214° |
| 2026-04-30 11:50 | 10.61421 | 107.86362 | 35870 ft | 448 kts | 214° |
| 2026-04-30 11:51 | 10.56201 | 107.82903 | 35871 ft | 448 kts | 214° |
| 2026-04-30 11:51 | 10.50986 | 107.79447 | 35866 ft | 448 kts | 214° |
| 2026-04-30 11:52 | 10.45810 | 107.76018 | 35863 ft | 448 kts | 214° |
| 2026-04-30 11:52 | 10.40583 | 107.72566 | 35874 ft | 449 kts | 214° |
| 2026-04-30 11:53 | 10.35341 | 107.69112 | 35878 ft | 449 kts | 213° |
| 2026-04-30 11:53 | 10.30100 | 107.65660 | 35871 ft | 450 kts | 214° |
| 2026-04-30 11:54 | 10.24846 | 107.62200 | 35877 ft | 449 kts | 214° |
| 2026-04-30 11:54 | 10.19600 | 107.58744 | 35869 ft | 450 kts | 214° |
| 2026-04-30 11:55 | 10.14357 | 107.55294 | 35875 ft | 450 kts | 214° |
| 2026-04-30 11:55 | 10.09141 | 107.51857 | 35882 ft | 450 kts | 214° |
| 2026-04-30 11:56 | 10.03885 | 107.48389 | 35866 ft | 451 kts | 214° |
| 2026-04-30 11:56 | 9.98620 | 107.44915 | 35880 ft | 452 kts | 214° |
| 2026-04-30 11:57 | 9.93353 | 107.41443 | 35883 ft | 452 kts | 214° |
| 2026-04-30 11:57 | 9.88081 | 107.37970 | 35872 ft | 451 kts | 215° |
| 2026-04-30 11:58 | 9.82823 | 107.34506 | 35884 ft | 451 kts | 214° |
| 2026-04-30 11:58 | 9.77553 | 107.31038 | 35881 ft | 451 kts | 214° |
| 2026-04-30 11:59 | 9.72296 | 107.27577 | 35879 ft | 452 kts | 214° |
| 2026-04-30 11:59 | 9.67016 | 107.24103 | 35879 ft | 453 kts | 214° |
| 2026-04-30 12:00 | 9.61725 | 107.20623 | 35878 ft | 453 kts | 214° |
| 2026-04-30 12:00 | 9.56429 | 107.17142 | 35880 ft | 453 kts | 213° |
| 2026-04-30 12:01 | 9.51212 | 107.13714 | 35867 ft | 453 kts | 214° |
| 2026-04-30 12:01 | 9.45920 | 107.10238 | 35878 ft | 453 kts | 214° |
| 2026-04-30 12:02 | 9.40630 | 107.06765 | 35879 ft | 453 kts | 214° |
| 2026-04-30 12:02 | 9.35321 | 107.03280 | 35875 ft | 456 kts | 214° |
| 2026-04-30 12:03 | 9.27328 | 106.98036 | 35875 ft | 456 kts | 214° |
| 2026-04-30 12:04 | 9.22003 | 106.94544 | 35877 ft | 456 kts | 214° |
| 2026-04-30 12:04 | 9.16679 | 106.91054 | 35878 ft | 456 kts | 214° |
| 2026-04-30 12:05 | 9.11351 | 106.87562 | 35877 ft | 456 kts | 214° |
| 2026-04-30 12:05 | 9.06019 | 106.84069 | 35880 ft | 456 kts | 213° |
| 2026-04-30 12:06 | 9.00676 | 106.80571 | 35880 ft | 458 kts | 214° |
| 2026-04-30 12:06 | 8.95365 | 106.77094 | 35878 ft | 458 kts | 214° |
| 2026-04-30 12:07 | 8.90014 | 106.73592 | 35876 ft | 458 kts | 214° |
| 2026-04-30 12:07 | 8.84667 | 106.70095 | 35879 ft | 458 kts | 213° |
| 2026-04-30 12:08 | 8.79326 | 106.66604 | 35877 ft | 457 kts | 213° |
| 2026-04-30 12:08 | 8.74232 | 106.62812 | 35880 ft | 454 kts | 226° |
| 2026-04-30 12:09 | 8.70404 | 106.57779 | 35880 ft | 452 kts | 238° |
| 2026-04-30 12:09 | 8.67138 | 106.52330 | 35878 ft | 454 kts | 242° |
| 2026-04-30 12:10 | 8.63967 | 106.46800 | 35877 ft | 454 kts | 241° |
| 2026-04-30 12:10 | 8.60792 | 106.41294 | 35878 ft | 454 kts | 240° |
| 2026-04-30 12:11 | 8.57583 | 106.35787 | 35877 ft | 454 kts | 240° |
| 2026-04-30 12:11 | 8.54368 | 106.30294 | 35879 ft | 454 kts | 240° |
| 2026-04-30 12:12 | 8.51151 | 106.24803 | 35880 ft | 454 kts | 240° |
| 2026-04-30 12:12 | 8.47930 | 106.19304 | 35879 ft | 454 kts | 240° |
| 2026-04-30 12:13 | 8.44719 | 106.13822 | 35879 ft | 454 kts | 240° |
| 2026-04-30 12:13 | 8.41497 | 106.08325 | 35878 ft | 454 kts | 240° |
| 2026-04-30 12:14 | 8.38281 | 106.02840 | 35878 ft | 454 kts | 240° |
| 2026-04-30 12:14 | 8.35055 | 105.97342 | 35876 ft | 455 kts | 240° |